createdAt,value
2022-11-29T00:00:31.774Z,711.97
2022-11-29T00:03:23.420Z,703.90
2022-11-29T00:05:58.468Z,711.10
2022-11-29T00:08:29.741Z,713.15
2022-11-29T00:13:37.570Z,711.00
2022-11-29T00:16:12.062Z,713.15
2022-11-29T00:18:44.053Z,706.92
2022-11-29T00:24:27.511Z,710.58
2022-11-29T00:26:59.332Z,713.05
2022-11-29T00:29:32.692Z,716.33
2022-11-29T00:32:04.395Z,711.88
2022-11-29T00:34:35.841Z,712.28
2022-11-29T00:39:41.316Z,703.42
2022-11-29T00:42:12.858Z,713.95
2022-11-29T00:44:44.668Z,711.83
2022-11-29T00:47:16.563Z,715.50
2022-11-29T00:49:47.904Z,714.47
2022-11-29T00:52:23.271Z,711.72
2022-11-29T00:54:54.536Z,717.63
2022-11-29T00:57:26.118Z,715.75
2022-11-29T00:59:57.462Z,714.63
2022-11-29T01:05:00.427Z,706.47
2022-11-29T01:07:34.595Z,714.38
2022-11-29T01:10:06.176Z,710.60
2022-11-29T01:12:39.530Z,711.47
2022-11-29T01:15:12.375Z,710.50
2022-11-29T01:17:44.146Z,717.45
2022-11-29T01:20:16.911Z,711.90
2022-11-29T01:22:51.459Z,716.95
2022-11-29T01:25:23.305Z,715.72
2022-11-29T01:27:55.354Z,711.67
2022-11-29T01:30:26.770Z,711.63
2022-11-29T01:35:29.335Z,713.30
2022-11-29T01:40:34.519Z,707.70
2022-11-29T01:43:06.161Z,712.88
2022-11-29T01:45:41.397Z,718.42
2022-11-29T01:48:13.754Z,714.15
2022-11-29T01:50:45.865Z,715.58
2022-11-29T01:53:20.533Z,712.47
2022-11-29T01:55:57.331Z,712.65
2022-11-29T01:58:29.162Z,715.30
2022-11-29T02:01:01.358Z,706.88
2022-11-29T02:03:32.968Z,710.88
2022-11-29T02:06:04.731Z,714.92
2022-11-29T02:08:41.617Z,711.15
2022-11-29T02:11:44.479Z,713.90
2022-11-29T02:14:37.082Z,715.03
2022-11-29T02:17:21.846Z,712.78
2022-11-29T02:20:19.752Z,709.20
2022-11-29T02:22:59.968Z,717.38
2022-11-29T02:25:53.691Z,711.72
2022-11-29T02:28:51.803Z,718.03
2022-11-29T02:32:17.174Z,716.70
2022-11-29T02:35:07.089Z,719.08
2022-11-29T02:38:02.058Z,715.75
2022-11-29T02:40:57.941Z,713.03
2022-11-29T02:43:58.028Z,718.15
2022-11-29T02:46:47.364Z,717.03
2022-11-29T02:49:28.355Z,717.83
2022-11-29T02:52:06.103Z,719.15
2022-11-29T02:54:46.072Z,720.83
2022-11-29T02:57:26.442Z,719.72
2022-11-29T03:00:08.045Z,717.00
2022-11-29T03:02:44.865Z,723.10
2022-11-29T03:05:23.219Z,720.80
2022-11-29T03:08:07.875Z,720.33
2022-11-29T03:10:49.340Z,715.63
2022-11-29T03:13:25.505Z,719.95
2022-11-29T03:16:06.364Z,722.10
2022-11-29T03:18:46.544Z,719.45
2022-11-29T03:21:27.704Z,716.15
2022-11-29T03:24:07.851Z,719.35
2022-11-29T03:26:45.036Z,717.72
2022-11-29T03:29:27.813Z,718.63
2022-11-29T03:32:07.260Z,722.55
2022-11-29T03:34:56.993Z,720.97
2022-11-29T03:37:36.919Z,720.58
2022-11-29T03:40:14.001Z,713.88
2022-11-29T03:42:53.328Z,720.65
2022-11-29T03:45:31.955Z,714.45
2022-11-29T03:48:10.461Z,717.17
2022-11-29T03:50:46.083Z,715.45
2022-11-29T03:53:29.739Z,713.33
2022-11-29T03:56:07.117Z,715.20
2022-11-29T03:58:52.992Z,717.20
2022-11-29T04:01:54.171Z,714.92
2022-11-29T04:04:59.261Z,719.67
2022-11-29T04:07:54.074Z,714.50
2022-11-29T04:10:41.106Z,715.88
2022-11-29T04:13:42.253Z,712.83
2022-11-29T04:17:01.831Z,720.28
2022-11-29T04:20:00.729Z,717.60
2022-11-29T04:22:57.984Z,715.00
2022-11-29T04:25:44.169Z,715.53
2022-11-29T04:28:47.076Z,712.75
2022-11-29T04:31:30.431Z,718.05
2022-11-29T04:34:27.936Z,712.67
2022-11-29T04:37:19.132Z,715.15
2022-11-29T04:40:06.732Z,715.85
2022-11-29T04:42:55.978Z,715.45
2022-11-29T04:45:56.916Z,710.35
2022-11-29T04:48:43.490Z,721.60
2022-11-29T04:51:32.519Z,717.83
2022-11-29T04:54:12.517Z,717.83
2022-11-29T04:56:46.705Z,716.30
2022-11-29T04:59:25.933Z,717.25
2022-11-29T05:02:09.990Z,716.58
2022-11-29T05:04:53.533Z,711.63
2022-11-29T05:07:36.397Z,718.85
2022-11-29T05:10:24.798Z,721.83
2022-11-29T05:13:02.611Z,718.08
2022-11-29T05:16:07.570Z,710.97
2022-11-29T05:19:07.763Z,714.85
2022-11-29T05:21:50.005Z,714.65
2022-11-29T05:24:39.310Z,708.50
2022-11-29T05:27:18.401Z,707.53
2022-11-29T05:29:57.265Z,707.63
2022-11-29T05:32:38.479Z,708.83
2022-11-29T05:35:35.873Z,712.53
2022-11-29T05:38:18.229Z,705.35
2022-11-29T05:41:05.859Z,703.42
2022-11-29T05:43:51.890Z,710.67
2022-11-29T05:46:29.649Z,706.75
2022-11-29T05:49:11.527Z,705.28
2022-11-29T05:51:51.168Z,707.55
2022-11-29T05:54:32.548Z,711.08
2022-11-29T05:57:16.476Z,710.85
2022-11-29T05:59:50.370Z,705.85
2022-11-29T06:02:35.460Z,716.72
2022-11-29T06:05:13.539Z,717.17
2022-11-29T06:07:51.893Z,714.55
2022-11-29T06:10:27.070Z,716.30
2022-11-29T06:13:15.878Z,712.17
2022-11-29T06:16:09.101Z,714.78
2022-11-29T06:18:56.327Z,712.05
2022-11-29T06:21:39.411Z,709.72
2022-11-29T06:24:36.242Z,707.33
2022-11-29T06:27:29.294Z,708.05
2022-11-29T06:30:10.659Z,702.88
2022-11-29T06:32:53.033Z,712.50
2022-11-29T06:35:40.979Z,707.78
2022-11-29T06:38:18.932Z,702.75
2022-11-29T06:40:51.285Z,759.17
2022-11-29T06:43:23.454Z,714.97
2022-11-29T06:46:03.495Z,717.47
2022-11-29T06:48:42.523Z,719.30
2022-11-29T06:51:22.174Z,722.63
2022-11-29T06:54:00.561Z,716.25
2022-11-29T06:56:42.602Z,711.85
2022-11-29T07:02:00.518Z,717.63
2022-11-29T07:04:52.652Z,715.15
2022-11-29T07:07:25.923Z,711.15
2022-11-29T07:10:00.546Z,719.67
2022-11-29T07:12:32.605Z,714.33
2022-11-29T07:15:05.193Z,723.22
2022-11-29T07:17:48.157Z,770.65
2022-11-29T07:20:26.766Z,853.30
2022-11-29T07:23:08.855Z,759.50
2022-11-29T07:25:52.447Z,896.63
2022-11-29T07:28:37.083Z,797.88
2022-11-29T07:31:14.143Z,750.20
2022-11-29T07:33:59.201Z,755.08
2022-11-29T07:36:42.070Z,755.72
2022-11-29T07:39:27.766Z,755.92
2022-11-29T07:42:07.383Z,758.72
2022-11-29T07:44:46.922Z,743.03
2022-11-29T07:47:18.553Z,809.22
2022-11-29T07:49:53.144Z,765.42
2022-11-29T07:52:25.318Z,754.10
2022-11-29T07:54:57.144Z,764.00
2022-11-29T07:57:28.931Z,773.85
2022-11-29T08:00:00.705Z,775.65
2022-11-29T08:02:33.356Z,785.13
2022-11-29T08:05:07.885Z,777.10
2022-11-29T08:07:39.547Z,776.25
2022-11-29T08:10:14.580Z,767.85
2022-11-29T08:12:46.882Z,759.10
2022-11-29T08:15:18.530Z,766.80
2022-11-29T08:17:50.871Z,766.40
2022-11-29T08:20:25.399Z,766.30
2022-11-29T14:58:41.506Z,787.08
2022-11-29T15:01:13.955Z,782.95
2022-11-29T15:03:50.757Z,775.30
2022-11-29T15:06:29.120Z,779.17
2022-11-29T15:09:07.402Z,787.50
2022-11-29T15:11:51.166Z,802.83
2022-11-29T15:14:32.507Z,806.50
2022-11-29T15:17:21.458Z,809.00
2022-11-29T15:20:24.036Z,809.50
2022-11-29T15:22:58.448Z,813.55
2022-11-29T15:25:32.195Z,824.38
2022-11-29T15:28:06.350Z,837.10
2022-11-29T15:30:42.067Z,863.85
2022-11-29T15:33:24.357Z,867.20
2022-11-29T15:35:57.518Z,926.03
2022-11-29T15:38:29.279Z,837.67
2022-11-29T15:41:00.671Z,924.83
2022-11-29T15:48:38.568Z,924.10
2022-11-29T15:51:21.764Z,903.97
2022-11-29T15:54:11.672Z,925.72
2022-11-29T15:56:49.255Z,923.47
2022-11-29T15:59:29.850Z,926.50
2022-11-29T16:02:08.925Z,924.88
2022-11-29T16:04:47.109Z,927.20
2022-11-29T16:07:19.393Z,925.45
2022-11-29T16:09:55.167Z,927.42
2022-11-29T16:12:26.910Z,928.45
2022-11-29T16:15:00.453Z,925.63
2022-11-29T16:17:36.718Z,927.83
2022-11-29T16:20:25.978Z,925.95
2022-11-29T16:23:21.295Z,927.10
2022-11-29T16:26:02.278Z,925.20
2022-11-29T16:28:37.680Z,929.25
2022-11-29T16:31:13.578Z,926.88
2022-11-29T16:33:52.238Z,927.55
2022-11-29T16:36:26.820Z,925.83
2022-11-29T16:39:07.230Z,926.42
2022-11-29T16:41:40.529Z,927.88
2022-11-29T16:44:56.742Z,929.85
2022-11-29T16:47:30.412Z,929.90
2022-11-29T16:50:23.537Z,926.00
2022-11-29T16:52:56.938Z,928.60
2022-11-29T16:55:29.335Z,928.65
2022-11-29T16:58:01.007Z,928.40
2022-11-29T17:00:34.652Z,925.70
2022-11-29T17:03:06.529Z,929.85
2022-11-29T17:05:44.689Z,928.15
2022-11-29T17:08:16.537Z,929.33
2022-11-29T17:10:47.982Z,929.85
2022-11-29T17:15:50.573Z,926.53
2022-11-29T17:18:22.305Z,928.40
2022-11-29T17:20:58.387Z,928.50
2022-11-29T17:23:30.038Z,931.15
2022-11-29T17:26:02.358Z,928.65
2022-11-29T17:28:34.052Z,929.80
2022-11-29T17:31:11.604Z,930.50
2022-11-29T17:33:43.573Z,931.63
2022-11-29T17:36:19.555Z,929.20
2022-11-29T17:38:51.553Z,930.85
2022-11-29T17:43:57.331Z,931.53
2022-11-29T17:46:31.157Z,932.08
2022-11-29T17:49:04.218Z,929.17
2022-11-29T17:51:51.596Z,931.85
2022-11-29T17:54:23.876Z,930.92
2022-11-29T17:56:55.376Z,930.38
2022-11-29T17:59:30.177Z,930.60
2022-11-29T18:02:02.289Z,928.95
2022-11-29T18:04:34.232Z,931.10
2022-11-29T18:07:08.217Z,932.20
2022-11-29T18:09:39.887Z,932.03
2022-11-29T18:12:11.488Z,932.58
2022-11-29T18:14:43.136Z,933.78
2022-11-29T18:17:14.598Z,931.42
2022-11-29T18:22:20.577Z,929.75
2022-11-29T18:24:57.694Z,932.15
2022-11-29T18:27:41.303Z,931.08
2022-11-29T18:32:44.280Z,926.90
2022-11-29T18:38:13.959Z,929.13
2022-11-29T18:40:42.240Z,933.60
2022-11-29T18:43:13.736Z,931.65
2022-11-29T18:45:45.383Z,930.67
2022-11-29T18:48:16.864Z,929.67
2022-11-29T18:53:22.078Z,929.92
2022-11-29T18:56:03.002Z,929.88
2022-11-29T18:58:34.527Z,930.38
2022-11-29T19:01:07.813Z,929.45
2022-11-29T19:03:41.090Z,931.50
2022-11-29T19:06:16.459Z,931.85
2022-11-29T19:08:50.942Z,931.33
2022-11-29T19:11:24.670Z,930.58
2022-11-29T19:13:57.929Z,931.22
2022-11-29T19:16:30.598Z,929.38
2022-11-29T19:19:03.791Z,929.83
2022-11-29T19:21:36.947Z,932.97
2022-11-29T19:24:18.350Z,930.15
2022-11-29T19:26:55.688Z,931.13
2022-11-29T19:29:26.981Z,931.45
2022-11-29T19:31:58.500Z,931.63
2022-11-29T19:34:29.854Z,929.67
2022-11-29T19:37:01.487Z,929.75
2022-11-29T19:39:35.459Z,930.20
2022-11-29T19:42:07.151Z,932.22
2022-11-29T19:45:08.630Z,932.10
2022-11-29T19:47:30.040Z,929.47
2022-11-29T19:50:02.793Z,932.08
2022-11-29T19:52:35.007Z,932.63
2022-11-29T19:55:09.526Z,932.83
2022-11-29T19:57:41.428Z,935.15
2022-11-29T20:00:13.548Z,932.72
2022-11-29T20:02:45.961Z,932.20
2022-11-29T20:05:17.646Z,931.53
2022-11-29T20:07:49.463Z,930.47
2022-11-29T20:10:23.761Z,932.08
2022-11-29T20:12:55.390Z,928.75
2022-11-29T20:15:27.012Z,931.80
2022-11-29T20:17:58.678Z,931.40
2022-11-29T20:20:31.151Z,929.13
2022-11-29T20:23:02.960Z,928.95
2022-11-29T20:25:37.383Z,931.42
2022-11-29T20:28:09.667Z,930.03
2022-11-29T20:30:41.494Z,929.67
2022-11-29T20:33:20.645Z,929.28
2022-11-29T20:35:54.601Z,930.90
2022-11-29T20:38:35.972Z,930.35
2022-11-29T20:41:17.106Z,930.47
2022-11-29T20:43:53.462Z,929.40
2022-11-29T20:46:26.124Z,928.20
2022-11-29T20:49:04.690Z,929.60
2022-11-29T20:51:43.289Z,930.75
2022-11-29T20:54:15.493Z,928.90
2022-11-29T20:59:20.761Z,930.25
2022-11-29T21:01:52.110Z,929.90
2022-11-29T21:06:55.199Z,929.90
2022-11-29T21:09:28.638Z,929.95
2022-11-29T21:12:03.260Z,931.05
2022-11-29T21:14:35.236Z,930.97
2022-11-29T21:17:07.152Z,929.45
2022-11-29T21:19:39.732Z,930.40
2022-11-29T21:22:20.320Z,930.72
2022-11-29T21:25:02.454Z,925.33
2022-11-29T21:27:38.196Z,930.25
2022-11-29T21:30:19.486Z,929.17
2022-11-29T21:32:51.575Z,930.58
2022-11-29T21:35:23.368Z,927.53
2022-11-29T21:37:56.541Z,931.00
2022-11-29T21:40:28.397Z,929.50
2022-11-29T21:43:02.336Z,929.63
2022-11-29T21:45:33.904Z,930.63
2022-11-29T21:48:25.237Z,928.92
2022-11-29T21:50:57.033Z,928.47
2022-11-29T21:53:29.651Z,926.63
2022-11-29T21:56:02.703Z,928.03
2022-11-29T21:58:38.628Z,928.72
2022-11-29T22:01:12.359Z,928.85
2022-11-29T22:03:47.950Z,930.65
2022-11-29T22:06:24.418Z,930.25
2022-11-29T22:08:55.727Z,929.58
2022-11-29T22:14:18.599Z,926.88
2022-11-29T22:16:52.615Z,928.05
2022-11-29T22:19:25.980Z,927.45
2022-11-29T22:21:59.546Z,929.33
2022-11-29T22:24:33.060Z,927.97
2022-11-29T22:27:04.786Z,930.70
2022-11-29T22:29:38.861Z,929.50
2022-11-29T22:32:10.523Z,929.80
2022-11-29T22:34:41.827Z,929.67
2022-11-29T22:39:44.238Z,928.15
2022-11-29T22:42:15.885Z,927.55
2022-11-29T22:44:49.755Z,928.10
2022-11-29T22:47:21.343Z,928.90
2022-11-29T22:49:52.523Z,928.35
2022-11-29T22:52:24.176Z,928.38
2022-11-29T22:54:59.925Z,928.28
2022-11-29T22:57:34.694Z,929.42
2022-11-29T23:00:09.552Z,930.15
2022-11-29T23:02:41.199Z,928.42
2022-11-29T23:05:12.583Z,926.08
2022-11-29T23:10:18.323Z,928.03
2022-11-29T23:12:50.222Z,926.78
2022-11-29T23:15:23.976Z,927.28
2022-11-29T23:17:55.730Z,930.25
2022-11-29T23:20:26.909Z,927.45
2022-11-29T23:25:29.478Z,927.53
2022-11-29T23:28:00.966Z,927.53
2022-11-29T23:30:35.898Z,927.90
2022-11-29T23:33:07.550Z,929.10
2022-11-29T23:35:38.756Z,929.42
2022-11-29T23:38:10.486Z,927.05
2022-11-29T23:40:41.736Z,930.40
2022-11-29T23:43:13.513Z,927.97
2022-11-29T23:45:47.313Z,927.92
2022-11-29T23:48:19.862Z,925.78
2022-11-29T23:50:51.213Z,926.83
2022-11-29T23:55:59.954Z,925.05
2022-11-29T23:58:33.040Z,927.10
